Time;durP1;ratioP1;P1;durP2;ratioP2;P2;SDS_P1;SDS_P2;PMS_P1;PMS_P2;Temp;Humidity;BMP_temperature;BMP_pressure;BME280_temperature;BME280_humidity;BME280_pressure;Samples;Min_cycle;Max_cycle;Signal;HPM_P1;HPM_P2
2023/05/27 00:01:43;;;;;;;17.83;4.57;;;11.40;99.90;;;;;;5094156;28;20190;-77
2023/05/27 00:04:09;;;;;;;14.27;5.03;;;11.30;99.90;;;;;;5094588;28;20167;-77
2023/05/27 00:06:35;;;;;;;18.70;4.30;;;11.30;99.90;;;;;;5092751;28;20277;-77
2023/05/27 00:09:00;;;;;;;11.07;4.23;;;11.30;99.90;;;;;;5092700;28;20260;-78
2023/05/27 00:11:27;;;;;;;14.17;4.30;;;11.20;99.90;;;;;;5092846;28;20292;-77
2023/05/27 00:13:53;;;;;;;17.10;5.27;;;11.20;99.90;;;;;;5093781;28;20596;-77
2023/05/27 00:16:19;;;;;;;15.17;4.23;;;11.20;99.90;;;;;;5092486;28;20201;-77
2023/05/27 00:18:47;;;;;;;19.00;5.20;;;11.10;1.00;;;;;;5092559;28;20175;-77
2023/05/27 00:21:12;;;;;;;15.37;4.53;;;11.10;1.00;;;;;;5092278;28;20667;-77
2023/05/27 00:23:38;;;;;;;10.63;3.50;;;11.00;1.00;;;;;;5093775;28;20212;-77
2023/05/27 00:26:04;;;;;;;16.20;4.20;;;11.00;1.00;;;;;;5092417;28;20616;-77
2023/05/27 00:28:31;;;;;;;14.27;4.17;;;11.00;1.00;;;;;;5093977;28;20166;-77
2023/05/27 00:30:57;;;;;;;15.40;4.70;;;10.90;1.00;;;;;;5093870;28;20686;-77
2023/05/27 00:33:23;;;;;;;14.70;4.67;;;10.90;1.00;;;;;;5093700;28;20592;-77
2023/05/27 00:35:48;;;;;;;13.43;4.13;;;10.90;1.00;;;;;;5093570;28;20225;-77
2023/05/27 00:38:14;;;;;;;8.13;3.83;;;10.80;1.00;;;;;;5093440;28;20171;-77
2023/05/27 00:40:40;;;;;;;12.20;3.90;;;10.80;1.00;;;;;;5092123;28;20223;-77
2023/05/27 00:43:06;;;;;;;13.13;4.07;;;10.80;1.00;;;;;;5093348;28;20271;-77
2023/05/27 00:45:31;;;;;;;17.03;5.17;;;10.80;1.00;;;;;;5091838;28;20695;-77
2023/05/27 00:47:58;;;;;;;15.77;4.53;;;10.70;1.00;;;;;;5093155;28;20569;-77
2023/05/27 00:50:25;;;;;;;18.43;4.70;;;10.60;1.00;;;;;;5093309;28;20174;-77
2023/05/27 00:52:51;;;;;;;13.70;4.50;;;10.60;1.00;;;;;;5093254;28;20175;-77
2023/05/27 00:55:17;;;;;;;16.73;4.57;;;10.50;1.00;;;;;;5091750;28;20202;-76
2023/05/27 00:57:43;;;;;;;12.07;3.53;;;10.50;1.00;;;;;;5093509;28;20202;-77
2023/05/27 01:00:10;;;;;;;12.17;3.70;;;10.50;1.00;;;;;;5091724;28;20180;-77
2023/05/27 01:02:36;;;;;;;12.13;3.90;;;10.40;1.00;;;;;;5091635;28;20190;-77
2023/05/27 01:05:01;;;;;;;13.93;4.37;;;10.40;1.00;;;;;;5091436;28;20292;-76
2023/05/27 01:07:42;;;;;;;16.47;3.83;;;10.30;1.00;;;;;;5092891;28;20163;-77
2023/05/27 01:10:26;;;;;;;12.27;3.80;;;10.20;1.00;;;;;;5093151;28;20154;-77
2023/05/27 01:13:04;;;;;;;14.40;4.20;;;10.30;1.00;;;;;;5093347;28;20580;-77
2023/05/27 01:15:32;;;;;;;14.53;3.93;;;10.20;1.00;;;;;;5091849;28;20194;-77
2023/05/27 01:18:01;;;;;;;12.40;3.97;;;10.20;1.00;;;;;;5092981;28;20167;-77
2023/05/27 01:20:29;;;;;;;20.03;4.07;;;10.10;1.00;;;;;;5092752;28;20527;-77
2023/05/27 01:22:57;;;;;;;15.03;4.13;;;10.10;1.00;;;;;;5092633;28;20233;-77
2023/05/27 01:25:23;;;;;;;10.30;4.37;;;10.00;1.00;;;;;;5090923;28;20202;-77
2023/05/27 01:27:49;;;;;;;12.80;3.70;;;10.00;1.00;;;;;;5091255;28;20167;-77
2023/05/27 01:30:15;;;;;;;13.63;3.80;;;10.00;1.00;;;;;;5092531;28;20194;-77
2023/05/27 01:32:47;;;;;;;18.77;4.63;;;10.00;1.00;;;;;;5092394;28;20223;-77
2023/05/27 01:35:27;;;;;;;18.70;4.60;;;9.90;1.00;;;;;;5091044;28;20201;-78
2023/05/27 01:37:55;;;;;;;12.70;3.40;;;9.90;1.00;;;;;;5090842;28;20166;-77
2023/05/27 01:40:21;;;;;;;13.00;3.93;;;9.90;1.00;;;;;;5092852;28;20407;-77
2023/05/27 01:42:48;;;;;;;11.17;4.00;;;9.90;1.00;;;;;;5092189;28;20284;-77
2023/05/27 01:45:14;;;;;;;13.03;3.80;;;9.80;1.00;;;;;;5092075;28;20182;-77
2023/05/27 01:47:40;;;;;;;14.77;4.13;;;9.80;1.00;;;;;;5092137;28;20258;-77
2023/05/27 01:50:07;;;;;;;17.03;3.67;;;9.70;1.00;;;;;;5092256;28;20176;-76
2023/05/27 01:52:32;;;;;;;11.73;3.90;;;9.80;1.00;;;;;;5093537;28;20189;-77
2023/05/27 01:54:58;;;;;;;13.50;3.53;;;9.70;1.00;;;;;;5092430;28;20194;-78
2023/05/27 01:57:25;;;;;;;11.63;3.63;;;9.60;1.00;;;;;;5092148;28;20166;-77
2023/05/27 01:59:50;;;;;;;15.57;4.03;;;9.60;1.00;;;;;;5090704;28;20182;-76
2023/05/27 02:02:16;;;;;;;16.30;4.50;;;9.60;1.00;;;;;;5095383;28;20247;-77
2023/05/27 02:04:41;;;;;;;11.93;3.90;;;9.60;1.00;;;;;;5112418;28;20189;-77
2023/05/27 02:07:07;;;;;;;16.07;4.30;;;9.60;1.00;;;;;;5112333;28;20166;-77
2023/05/27 02:09:33;;;;;;;13.80;4.40;;;9.50;1.00;;;;;;5112489;28;20638;-77
2023/05/27 02:11:58;;;;;;;21.60;4.23;;;9.50;1.00;;;;;;5111144;28;20174;-77
2023/05/27 02:14:24;;;;;;;13.17;4.10;;;9.50;1.00;;;;;;5112187;28;20193;-77
2023/05/27 02:16:49;;;;;;;14.67;4.53;;;9.50;1.00;;;;;;5112379;28;20673;-77
2023/05/27 02:19:17;;;;;;;17.33;4.17;;;9.50;1.00;;;;;;5110749;28;20642;-77
2023/05/27 02:21:42;;;;;;;15.87;4.23;;;9.50;1.00;;;;;;5112153;28;20201;-78
2023/05/27 02:24:08;;;;;;;13.30;4.20;;;9.40;1.00;;;;;;5111393;28;20189;-77
2023/05/27 02:26:34;;;;;;;15.53;4.73;;;9.40;1.00;;;;;;5110814;28;20193;-76
2023/05/27 02:28:59;;;;;;;13.60;4.50;;;9.40;1.00;;;;;;5112180;28;20178;-77
2023/05/27 02:31:25;;;;;;;8.33;3.60;;;9.40;1.00;;;;;;5112144;28;20188;-76
2023/05/27 02:33:51;;;;;;;12.83;3.83;;;9.40;1.00;;;;;;5111164;28;20500;-77
2023/05/27 02:36:16;;;;;;;14.70;3.87;;;9.40;1.00;;;;;;5112727;28;20246;-77
2023/05/27 02:38:42;;;;;;;14.40;4.43;;;9.40;1.00;;;;;;5116343;28;20176;-77
2023/05/27 02:41:07;;;;;;;11.93;4.77;;;9.40;1.00;;;;;;5116224;28;20707;-77
2023/05/27 02:43:33;;;;;;;19.63;4.47;;;9.30;1.00;;;;;;5101751;28;20255;-77
2023/05/27 02:45:58;;;;;;;12.77;4.00;;;9.40;1.00;;;;;;5095764;28;20190;-77
2023/05/27 02:48:24;;;;;;;17.33;4.30;;;9.30;1.00;;;;;;5094550;28;20523;-77
2023/05/27 02:50:49;;;;;;;10.77;3.57;;;9.30;15.20;;;;;;5094811;28;20182;-77
2023/05/27 02:53:15;;;;;;;13.27;4.27;;;9.30;1.00;;;;;;5095177;28;20558;-76
2023/05/27 02:55:41;;;;;;;10.77;3.90;;;9.30;1.00;;;;;;5095314;28;20660;-77
2023/05/27 02:58:07;;;;;;;12.43;4.00;;;9.30;1.00;;;;;;5094651;28;20279;-76
2023/05/27 03:00:33;;;;;;;11.70;4.33;;;9.30;1.00;;;;;;5095480;28;20176;-77
2023/05/27 03:02:59;;;;;;;12.30;3.87;;;9.30;9.30;;;;;;5094920;28;20201;-77
2023/05/27 03:05:24;;;;;;;9.73;3.73;;;9.20;6.60;;;;;;5093981;28;20300;-77
2023/05/27 03:07:50;;;;;;;10.83;4.23;;;9.20;17.00;;;;;;5095365;28;20252;-76
2023/05/27 03:10:15;;;;;;;16.57;5.03;;;9.20;27.00;;;;;;5095171;28;20170;-77
2023/05/27 03:12:41;;;;;;;16.83;4.73;;;9.20;39.90;;;;;;5094642;28;20596;-76
2023/05/27 03:15:07;;;;;;;11.00;4.27;;;9.10;47.50;;;;;;5095478;28;20252;-76
2023/05/27 03:17:37;;;;;;;14.73;4.70;;;9.10;50.10;;;;;;5095272;28;20170;-77
2023/05/27 03:20:04;;;;;;;12.83;4.70;;;9.10;44.30;;;;;;5093868;28;20166;-76
2023/05/27 03:22:30;;;;;;;15.77;4.60;;;9.10;84.70;;;;;;5093064;28;20721;-77
2023/05/27 03:24:55;;;;;;;15.97;4.70;;;9.10;87.20;;;;;;5095134;28;20209;-77
2023/05/27 03:27:21;;;;;;;12.50;4.27;;;9.10;75.50;;;;;;5095120;28;20162;-77
2023/05/27 03:29:48;;;;;;;12.23;4.03;;;9.00;67.30;;;;;;5094780;28;20166;-77
2023/05/27 03:32:13;;;;;;;15.47;4.50;;;9.00;99.90;;;;;;5093055;28;20174;-78
2023/05/27 03:34:39;;;;;;;12.23;4.80;;;9.00;99.90;;;;;;5093301;28;20249;-77
2023/05/27 03:37:04;;;;;;;13.87;4.90;;;9.00;99.90;;;;;;5094792;28;20345;-77
2023/05/27 03:39:30;;;;;;;15.77;4.13;;;9.00;99.90;;;;;;5094843;28;20174;-77
2023/05/27 03:41:56;;;;;;;12.10;4.33;;;9.00;99.90;;;;;;5095185;28;20209;-76
2023/05/27 03:44:22;;;;;;;16.33;4.90;;;9.00;99.90;;;;;;5094401;28;20244;-77
2023/05/27 03:46:47;;;;;;;19.13;4.53;;;9.00;99.90;;;;;;5092954;28;20186;-78
2023/05/27 03:49:13;;;;;;;17.17;5.37;;;9.00;99.90;;;;;;5093235;28;20554;-77
2023/05/27 03:51:38;;;;;;;12.87;4.67;;;9.00;99.90;;;;;;5094864;28;20170;-77
2023/05/27 03:54:04;;;;;;;15.63;4.83;;;9.00;99.90;;;;;;5094106;28;20227;-77
2023/05/27 03:56:29;;;;;;;11.00;4.00;;;9.00;99.90;;;;;;5094436;28;20276;-76
2023/05/27 03:58:56;;;;;;;19.10;5.10;;;8.90;99.90;;;;;;5094587;28;20603;-77
2023/05/27 04:01:22;;;;;;;14.77;4.70;;;8.90;99.90;;;;;;5102406;28;20307;-77
2023/05/27 04:03:48;;;;;;;12.83;4.60;;;8.90;99.90;;;;;;5098081;28;20206;-77
2023/05/27 04:06:13;;;;;;;18.00;5.40;;;8.90;99.90;;;;;;5094334;28;20559;-77
2023/05/27 04:08:40;;;;;;;12.40;4.27;;;8.90;99.90;;;;;;5094456;28;20195;-77
2023/05/27 04:11:09;;;;;;;16.03;5.00;;;9.00;99.90;;;;;;5094476;28;20193;-78
2023/05/27 04:13:35;;;;;;;18.17;4.93;;;8.90;99.90;;;;;;5094041;28;20182;-78
2023/05/27 04:16:01;;;;;;;16.37;5.50;;;8.90;99.90;;;;;;5092880;28;20572;-78
2023/05/27 04:18:26;;;;;;;19.70;6.10;;;9.00;99.90;;;;;;5092828;28;20173;-77
2023/05/27 04:20:52;;;;;;;11.47;5.13;;;9.00;99.90;;;;;;5094104;28;20167;-78
2023/05/27 04:23:17;;;;;;;17.43;5.67;;;9.00;99.90;;;;;;5104486;28;20292;-77
2023/05/27 04:25:43;;;;;;;15.93;5.60;;;8.90;99.90;;;;;;5112897;28;20193;-77
2023/05/27 04:28:09;;;;;;;18.53;5.20;;;8.90;99.90;;;;;;5114147;28;20231;-77
2023/05/27 04:30:36;;;;;;;16.33;5.63;;;9.00;99.90;;;;;;5114197;28;20189;-77
2023/05/27 04:33:02;;;;;;;11.50;5.13;;;9.00;99.90;;;;;;5104581;28;20184;-77
2023/05/27 04:35:30;;;;;;;14.33;5.20;;;9.00;99.90;;;;;;5106297;28;20262;-77
2023/05/27 04:37:58;;;;;;;12.33;4.97;;;9.00;99.90;;;;;;5113961;28;20622;-77
2023/05/27 04:40:24;;;;;;;23.00;5.80;;;9.00;99.90;;;;;;5113945;28;20170;-77
2023/05/27 04:42:50;;;;;;;14.83;5.20;;;9.00;99.90;;;;;;5106106;28;20205;-77
2023/05/27 04:45:16;;;;;;;15.73;5.73;;;9.10;99.90;;;;;;5093464;28;20747;-77
2023/05/27 04:47:42;;;;;;;15.43;4.93;;;9.10;99.90;;;;;;5093278;28;20217;-77
2023/05/27 04:50:09;;;;;;;14.53;5.23;;;9.10;99.90;;;;;;5093357;28;20166;-77
2023/05/27 04:52:38;;;;;;;15.13;5.40;;;9.10;99.90;;;;;;5092959;28;20174;-78
2023/05/27 04:55:08;;;;;;;13.97;6.50;;;9.10;99.90;;;;;;5093175;28;20195;-77
2023/05/27 04:57:35;;;;;;;12.97;5.20;;;9.10;99.90;;;;;;5091653;28;20178;-77
2023/05/27 05:02:35;;;;;;;15.17;4.60;;;9.20;99.90;;;;;;5096513;28;20202;-77
2023/05/27 05:05:02;;;;;;;18.50;6.07;;;9.20;99.90;;;;;;5106049;28;20219;-77
2023/05/27 05:07:28;;;;;;;13.37;5.00;;;9.30;99.90;;;;;;5104746;28;20253;-77
2023/05/27 05:09:53;;;;;;;11.87;4.90;;;9.30;99.90;;;;;;5112090;28;20264;-77
2023/05/27 05:12:19;;;;;;;13.37;5.00;;;9.30;99.90;;;;;;5111975;28;20201;-77
2023/05/27 05:14:44;;;;;;;22.70;5.53;;;9.40;99.90;;;;;;5099268;28;20229;-77
2023/05/27 05:17:10;;;;;;;19.30;5.40;;;9.40;99.90;;;;;;5092920;28;20651;-77
2023/05/27 05:19:36;;;;;;;17.27;5.47;;;9.40;99.90;;;;;;5090998;28;20186;-77
2023/05/27 05:22:01;;;;;;;15.67;5.90;;;9.50;99.90;;;;;;5091111;28;20213;-77
2023/05/27 05:24:27;;;;;;;16.97;5.53;;;9.50;99.90;;;;;;5090880;28;20671;-77
2023/05/27 05:26:52;;;;;;;12.83;5.50;;;9.50;99.90;;;;;;5091721;28;20239;-77
2023/05/27 05:29:18;;;;;;;18.97;5.33;;;9.60;99.90;;;;;;5091633;28;20192;-77
2023/05/27 05:31:45;;;;;;;20.47;5.77;;;9.70;99.90;;;;;;5091516;28;20267;-77
2023/05/27 05:34:11;;;;;;;19.33;5.73;;;9.70;99.90;;;;;;5093646;28;20174;-77
2023/05/27 05:36:36;;;;;;;16.13;5.10;;;9.70;99.90;;;;;;5091214;28;20228;-77
2023/05/27 05:39:03;;;;;;;19.03;5.83;;;9.70;99.90;;;;;;5091477;28;20228;-77
2023/05/27 05:41:28;;;;;;;15.43;5.63;;;9.80;99.90;;;;;;5092431;28;20600;-77
2023/05/27 05:43:54;;;;;;;21.57;5.23;;;9.90;91.90;;;;;;5104799;28;20208;-78
2023/05/27 05:46:19;;;;;;;13.10;5.10;;;9.90;78.90;;;;;;5111513;28;20284;-77
2023/05/27 05:48:45;;;;;;;19.97;5.80;;;10.00;77.90;;;;;;5113481;28;20593;-78
2023/05/27 05:51:11;;;;;;;13.50;4.83;;;10.00;41.00;;;;;;5113219;28;20165;-77
2023/05/27 05:53:36;;;;;;;12.80;4.73;;;10.10;27.10;;;;;;5101071;28;20212;-79
2023/05/27 05:56:02;;;;;;;18.00;5.63;;;10.10;12.50;;;;;;5093108;28;20195;-76
2023/05/27 05:58:27;;;;;;;14.97;5.93;;;10.20;1.00;;;;;;5093334;28;20242;-77
2023/05/27 06:00:53;;;;;;;17.90;5.60;;;10.20;1.00;;;;;;5091699;28;20267;-78
2023/05/27 06:03:19;;;;;;;16.03;5.47;;;10.30;1.00;;;;;;5092470;28;20201;-77
2023/05/27 06:05:45;;;;;;;22.00;5.60;;;10.30;1.00;;;;;;5092847;28;20654;-76
2023/05/27 06:08:11;;;;;;;17.80;5.00;;;10.40;1.00;;;;;;5092117;28;20224;-77
2023/05/27 06:10:36;;;;;;;21.00;6.00;;;10.40;1.00;;;;;;5092294;28;20643;-77
2023/05/27 06:13:02;;;;;;;16.53;5.50;;;10.50;1.00;;;;;;5094343;28;20191;-77
2023/05/27 06:15:28;;;;;;;13.17;5.03;;;10.60;1.00;;;;;;5112721;28;20200;-77
2023/05/27 06:17:54;;;;;;;17.47;5.17;;;10.60;1.00;;;;;;5112806;28;20180;-77
2023/05/27 06:20:19;;;;;;;16.27;4.90;;;10.70;1.00;;;;;;5112815;28;20166;-77
2023/05/27 06:22:47;;;;;;;11.67;4.60;;;10.70;1.00;;;;;;5108009;28;20224;-77
2023/05/27 06:25:12;;;;;;;11.93;4.87;;;10.80;1.00;;;;;;5099239;28;20199;-77
2023/05/27 06:27:38;;;;;;;21.40;5.47;;;10.90;1.00;;;;;;5112842;28;20169;-77
2023/05/27 06:30:04;;;;;;;16.43;5.00;;;10.90;1.00;;;;;;5113178;28;20174;-77
2023/05/27 06:32:30;;;;;;;17.57;5.40;;;10.90;1.00;;;;;;5112906;28;20169;-77
2023/05/27 06:34:56;;;;;;;19.97;5.20;;;11.00;1.00;;;;;;5109814;28;20582;-77
2023/05/27 06:37:21;;;;;;;16.93;5.87;;;11.10;1.00;;;;;;5113839;28;20216;-77
2023/05/27 06:39:47;;;;;;;14.70;4.93;;;11.10;1.00;;;;;;5114288;28;20174;-77
2023/05/27 06:42:13;;;;;;;18.00;4.57;;;11.20;1.00;;;;;;5112052;28;20202;-77
2023/05/27 06:44:39;;;;;;;11.17;4.63;;;11.30;1.00;;;;;;5101734;28;20178;-78
2023/05/27 06:47:04;;;;;;;15.00;5.27;;;11.30;1.00;;;;;;5108998;28;20539;-78
2023/05/27 06:49:30;;;;;;;18.03;5.70;;;11.40;1.00;;;;;;5115444;28;20177;-77
2023/05/27 06:51:56;;;;;;;13.33;4.77;;;11.40;1.00;;;;;;5113147;28;20190;-78
2023/05/27 06:54:21;;;;;;;13.83;4.87;;;11.60;1.00;;;;;;5107292;28;20186;-78
2023/05/27 06:56:47;;;;;;;16.10;5.27;;;11.60;1.00;;;;;;5115276;28;20201;-77
2023/05/27 06:59:12;;;;;;;16.37;4.53;;;11.70;1.00;;;;;;5115113;28;20222;-77
2023/05/27 07:01:38;;;;;;;11.07;4.67;;;11.70;1.00;;;;;;5113574;28;20679;-77
2023/05/27 07:04:03;;;;;;;12.40;4.10;;;11.80;1.00;;;;;;5101550;28;20190;-79
2023/05/27 07:06:29;;;;;;;15.43;5.03;;;11.80;1.00;;;;;;5102076;28;20202;-78
2023/05/27 07:08:55;;;;;;;15.70;5.27;;;12.00;99.90;;;;;;5095863;28;20194;-77
2023/05/27 07:11:21;;;;;;;12.90;4.90;;;12.00;99.90;;;;;;5104728;28;20664;-78
2023/05/27 07:13:47;;;;;;;15.17;5.57;;;12.20;99.90;;;;;;5095914;28;20174;-77
2023/05/27 07:16:12;;;;;;;17.43;5.47;;;12.20;99.90;;;;;;5095992;28;20198;-77
2023/05/27 07:18:38;;;;;;;15.63;4.33;;;12.30;99.90;;;;;;5095755;28;20200;-77
2023/05/27 07:21:03;;;;;;;12.60;5.00;;;12.30;99.90;;;;;;5110941;28;20185;-76
2023/05/27 07:23:29;;;;;;;16.23;4.53;;;12.30;99.90;;;;;;5112985;28;20220;-75
2023/05/27 07:25:55;;;;;;;17.17;4.50;;;12.40;99.90;;;;;;5100721;28;20198;-77
2023/05/27 07:28:20;;;;;;;14.13;4.53;;;12.60;99.90;;;;;;5094513;28;20181;-76
2023/05/27 07:30:46;;;;;;;13.97;4.83;;;12.60;99.90;;;;;;5095194;28;20170;-77
2023/05/27 07:33:11;;;;;;;14.50;5.10;;;12.70;99.90;;;;;;5096308;28;20179;-77
2023/05/27 07:35:37;;;;;;;15.00;5.07;;;12.80;99.90;;;;;;5094906;28;20202;-78
2023/05/27 07:38:02;;;;;;;16.47;5.00;;;12.80;99.90;;;;;;5096320;28;20187;-78
2023/05/27 07:40:28;;;;;;;17.03;4.70;;;13.00;99.90;;;;;;5097216;28;20203;-77
2023/05/27 07:42:53;;;;;;;13.10;4.80;;;13.00;99.90;;;;;;5100967;28;20683;-77
2023/05/27 07:45:19;;;;;;;11.93;4.63;;;13.10;99.90;;;;;;5109547;28;20204;-77
2023/05/27 07:47:46;;;;;;;12.63;4.83;;;13.10;99.90;;;;;;5115453;28;20603;-77
2023/05/27 07:50:11;;;;;;;15.33;4.67;;;13.20;99.90;;;;;;5116737;28;20248;-77
2023/05/27 07:52:39;;;;;;;16.17;5.13;;;13.20;99.90;;;;;;5106640;28;20206;-77
2023/05/27 07:55:05;;;;;;;11.57;4.40;;;13.30;99.90;;;;;;5096656;28;20200;-77
2023/05/27 07:57:31;;;;;;;14.50;4.27;;;13.40;99.90;;;;;;5094922;28;20213;-77
2023/05/27 07:59:56;;;;;;;12.40;4.43;;;13.50;99.90;;;;;;5094494;28;20232;-77
2023/05/27 08:02:22;;;;;;;15.70;4.50;;;13.60;99.90;;;;;;5094201;28;20208;-77
2023/05/27 08:04:48;;;;;;;17.77;4.27;;;13.60;99.90;;;;;;5094269;28;20324;-76
2023/05/27 08:07:14;;;;;;;15.90;4.53;;;13.70;99.90;;;;;;5094424;28;20182;-77
2023/05/27 08:09:39;;;;;;;16.50;4.93;;;13.80;99.90;;;;;;5094909;28;20193;-77
2023/05/27 08:12:08;;;;;;;14.20;4.53;;;13.80;99.90;;;;;;5097185;28;20348;-78
2023/05/27 08:14:38;;;;;;;16.60;4.23;;;13.90;99.90;;;;;;5096705;28;20275;-78
2023/05/27 08:17:03;;;;;;;12.43;3.97;;;14.00;99.90;;;;;;5096440;28;20185;-78
2023/05/27 08:19:29;;;;;;;14.93;4.90;;;14.10;99.90;;;;;;5094793;28;20170;-77
2023/05/27 08:21:55;;;;;;;10.07;3.67;;;14.20;99.90;;;;;;5108608;28;20209;-77
2023/05/27 08:24:23;;;;;;;19.77;5.20;;;14.30;99.90;;;;;;5118741;28;20204;-79
2023/05/27 08:26:50;;;;;;;16.50;4.97;;;15.20;99.90;;;;;;5118228;28;20185;-77
2023/05/27 08:29:16;;;;;;;17.43;5.23;;;14.50;99.90;;;;;;5117484;28;20177;-78
2023/05/27 08:31:41;;;;;;;13.17;4.60;;;14.60;99.90;;;;;;5104222;28;20197;-78
2023/05/27 08:34:07;;;;;;;14.73;4.60;;;14.70;98.70;;;;;;5097871;28;20234;-78
2023/05/27 08:36:32;;;;;;;15.10;5.30;;;14.80;99.90;;;;;;5096553;28;20572;-78
2023/05/27 08:38:59;;;;;;;10.57;3.93;;;14.90;99.90;;;;;;5097745;28;20170;-78
2023/05/27 08:41:26;;;;;;;13.00;5.25;;;15.00;99.90;;;;;;5103988;28;20185;-78
2023/05/27 08:43:52;;;;;;;13.37;5.03;;;15.20;99.90;;;;;;5099177;28;20541;-78
2023/05/27 08:46:19;;;;;;;10.30;3.93;;;15.20;1.00;;;;;;5100655;28;20192;-78
2023/05/27 08:48:45;;;;;;;10.20;4.10;;;15.20;1.00;;;;;;5097432;28;20185;-78
2023/05/27 08:51:12;;;;;;;11.07;3.97;;;15.30;38.00;;;;;;5104704;28;20170;-77
2023/05/27 08:53:38;;;;;;;13.00;4.57;;;15.50;74.50;;;;;;5120052;28;20549;-78
2023/05/27 08:56:06;;;;;;;16.23;4.93;;;15.60;1.00;;;;;;5117926;28;20197;-78
2023/05/27 08:58:32;;;;;;;14.57;4.93;;;15.70;1.00;;;;;;5121866;28;20166;-77
2023/05/27 09:00:58;;;;;;;15.70;4.93;;;15.80;1.00;;;;;;5117390;28;20178;-79
2023/05/27 09:03:23;;;;;;;13.17;4.23;;;15.80;1.00;;;;;;5118394;28;20204;-78
2023/05/27 09:05:49;;;;;;;20.03;5.00;;;15.90;10.50;;;;;;5120962;28;20189;-78
2023/05/27 09:08:15;;;;;;;13.90;4.23;;;16.00;1.00;;;;;;5119467;28;20169;-78
2023/05/27 09:10:42;;;;;;;18.37;4.37;;;16.10;1.00;;;;;;5115998;28;20692;-78
2023/05/27 09:13:08;;;;;;;16.67;5.10;;;16.10;1.00;;;;;;5099945;28;20177;-77
2023/05/27 09:15:34;;;;;;;13.37;4.43;;;16.20;1.00;;;;;;5100006;28;20612;-78
2023/05/27 09:18:02;;;;;;;17.07;4.67;;;16.30;1.00;;;;;;5098378;28;20592;-78
2023/05/27 09:20:29;;;;;;;16.93;4.90;;;16.40;1.00;;;;;;5099599;28;20189;-78
2023/05/27 09:23:02;;;;;;;17.40;4.30;;;16.50;1.00;;;;;;5097517;28;20698;-78
2023/05/27 09:25:28;;;;;;;9.80;3.90;;;16.50;1.00;;;;;;5097727;28;20556;-78
2023/05/27 09:27:54;;;;;;;16.57;5.30;;;16.60;1.00;;;;;;5098007;28;20178;-78
2023/05/27 09:30:21;;;;;;;14.27;3.67;;;16.70;1.00;;;;;;5099300;28;20170;-80
2023/05/27 09:32:47;;;;;;;12.27;4.50;;;16.70;1.00;;;;;;5098499;28;20183;-79
2023/05/27 09:35:14;;;;;;;14.20;4.20;;;16.80;1.00;;;;;;5098135;28;20266;-78
2023/05/27 09:37:40;;;;;;;16.63;4.57;;;16.90;1.00;;;;;;5097923;28;20178;-77
2023/05/27 09:40:12;;;;;;;10.30;4.33;;;16.90;1.00;;;;;;5099001;28;20177;-77
2023/05/27 09:42:45;;;;;;;13.00;4.00;;;17.00;1.00;;;;;;5095806;28;20198;-77
2023/05/27 09:45:17;;;;;;;19.87;4.60;;;17.00;1.00;;;;;;5094812;28;20186;-78
2023/05/27 09:47:48;;;;;;;13.43;4.23;;;17.10;1.00;;;;;;5098143;28;20655;-78
2023/05/27 09:50:16;;;;;;;13.67;4.40;;;17.20;1.00;;;;;;5096378;28;20261;-78
2023/05/27 09:52:44;;;;;;;12.33;4.23;;;17.30;1.00;;;;;;5095997;28;20182;-77
2023/05/27 09:55:12;;;;;;;19.07;4.07;;;17.40;1.00;;;;;;5097599;28;20202;-78
2023/05/27 09:57:39;;;;;;;14.80;4.87;;;17.50;1.00;;;;;;5098007;28;20177;-78
2023/05/27 10:00:16;;;;;;;8.33;3.73;;;17.60;99.90;;;;;;5096574;28;20208;-77
2023/05/27 10:02:45;;;;;;;11.53;3.87;;;17.60;99.90;;;;;;5097317;28;20190;-77
2023/05/27 10:05:12;;;;;;;12.83;4.03;;;17.70;1.00;;;;;;5096805;28;20178;-79
2023/05/27 10:07:41;;;;;;;12.97;4.07;;;17.70;99.90;;;;;;5096920;28;20618;-78
2023/05/27 10:10:09;;;;;;;12.00;3.23;;;17.80;1.00;;;;;;5094594;28;20178;-77
2023/05/27 10:12:37;;;;;;;10.50;3.40;;;17.90;99.90;;;;;;5101948;28;20187;-77
2023/05/27 10:15:03;;;;;;;8.70;3.57;;;18.00;99.90;;;;;;5115893;28;20201;-78
2023/05/27 10:17:55;;;;;;;14.80;4.47;;;18.10;99.90;;;;;;5116682;28;20176;-77
2023/05/27 10:20:31;;;;;;;14.53;4.57;;;18.20;1.00;;;;;;5115757;28;20169;-77
2023/05/27 10:23:25;;;;;;;12.00;3.57;;;18.10;99.90;;;;;;5115440;28;20212;-77
2023/05/27 10:26:11;;;;;;;12.63;4.07;;;18.20;99.90;;;;;;5110271;28;20262;-77
2023/05/27 10:28:41;;;;;;;10.63;4.17;;;18.40;99.90;;;;;;5113163;28;20309;-77
2023/05/27 10:31:13;;;;;;;10.77;3.57;;;18.20;99.90;;;;;;5114118;28;20174;-77
2023/05/27 10:33:42;;;;;;;8.90;3.60;;;18.40;79.30;;;;;;5106617;28;20185;-77
2023/05/27 10:36:10;;;;;;;13.63;3.20;;;18.40;99.90;;;;;;5095410;28;20285;-77
2023/05/27 10:38:37;;;;;;;16.30;3.87;;;18.50;99.90;;;;;;5093949;28;20277;-77
2023/05/27 10:41:05;;;;;;;8.93;3.43;;;18.60;99.90;;;;;;5095788;28;20588;-78
2023/05/27 10:43:32;;;;;;;13.87;3.80;;;18.70;99.90;;;;;;5095589;28;20287;-77
2023/05/27 10:46:07;;;;;;;15.50;4.50;;;18.70;99.90;;;;;;5095384;28;20564;-77
2023/05/27 10:48:33;;;;;;;13.63;3.33;;;18.80;1.00;;;;;;5096515;28;20166;-77
2023/05/27 10:50:59;;;;;;;13.10;4.23;;;18.90;99.90;;;;;;5096196;28;20167;-78
2023/05/27 10:53:28;;;;;;;10.40;3.77;;;18.90;10.60;;;;;;5096672;28;20481;-78
2023/05/27 10:55:57;;;;;;;10.63;3.77;;;19.00;99.90;;;;;;5094581;28;20204;-78
2023/05/27 10:58:22;;;;;;;13.97;3.37;;;19.10;99.90;;;;;;5099062;28;20174;-79
2023/05/27 11:00:50;;;;;;;9.83;3.57;;;19.10;1.00;;;;;;5100468;28;20170;-77
2023/05/27 11:03:24;;;;;;;10.30;3.30;;;19.10;72.00;;;;;;5097796;28;20640;-77
2023/05/27 11:06:04;;;;;;;14.67;3.97;;;19.20;99.90;;;;;;5099155;28;20189;-77
2023/05/27 11:08:31;;;;;;;12.63;3.50;;;19.30;1.00;;;;;;5098082;28;20166;-78
2023/05/27 11:11:10;;;;;;;11.50;3.47;;;19.40;1.00;;;;;;5100313;28;20178;-78
2023/05/27 11:13:39;;;;;;;8.97;3.47;;;19.50;1.00;;;;;;5099315;28;20194;-78
2023/05/27 11:16:06;;;;;;;7.10;3.13;;;19.50;5.60;;;;;;5099073;28;20637;-78
2023/05/27 11:18:40;;;;;;;8.37;2.90;;;19.50;1.00;;;;;;5108898;28;20182;-78
2023/05/27 11:21:07;;;;;;;11.33;2.97;;;19.70;1.00;;;;;;5121081;27;20154;-78
2023/05/27 11:23:40;;;;;;;8.30;3.17;;;19.70;1.00;;;;;;5119071;28;20213;-78
2023/05/27 11:26:17;;;;;;;7.30;3.17;;;19.70;99.90;;;;;;5120532;28;20189;-78
2023/05/27 11:28:54;;;;;;;8.57;3.00;;;19.80;1.00;;;;;;5120490;28;20157;-78
2023/05/27 11:31:27;;;;;;;10.20;2.97;;;19.90;99.90;;;;;;5106443;28;20553;-78
2023/05/27 11:33:53;;;;;;;10.07;3.10;;;20.00;99.90;;;;;;5100630;28;20166;-78
2023/05/27 11:36:21;;;;;;;8.13;3.03;;;19.90;99.90;;;;;;5098888;28;20204;-78
2023/05/27 11:38:58;;;;;;;13.23;3.60;;;20.10;1.00;;;;;;5098997;28;20194;-77
2023/05/27 11:41:28;;;;;;;12.03;3.10;;;20.20;1.00;;;;;;5098710;28;20174;-78
2023/05/27 11:44:00;;;;;;;9.83;2.97;;;20.20;99.90;;;;;;5112364;28;20205;-77
2023/05/27 11:46:36;;;;;;;8.70;2.90;;;20.30;99.90;;;;;;5121705;28;20606;-79
2023/05/27 11:49:07;;;;;;;11.53;3.63;;;20.30;1.00;;;;;;5123370;28;20343;-78
2023/05/27 11:51:41;;;;;;;8.27;3.37;;;20.30;1.00;;;;;;5122050;28;20142;-78
2023/05/27 11:54:15;;;;;;;7.13;2.80;;;20.40;1.00;;;;;;5122753;28;20238;-78
2023/05/27 11:56:40;;;;;;;8.20;3.40;;;20.40;1.00;;;;;;5119634;28;20198;-79
2023/05/27 11:59:06;;;;;;;7.20;2.87;;;20.50;1.00;;;;;;5122883;28;20201;-78
2023/05/27 12:01:31;;;;;;;10.77;3.00;;;20.60;1.00;;;;;;5120161;28;20213;-78
2023/05/27 12:03:57;;;;;;;15.10;3.43;;;20.60;1.00;;;;;;5120058;28;20267;-79
2023/05/27 12:06:22;;;;;;;12.33;3.27;;;20.70;99.90;;;;;;5120487;28;20235;-78
2023/05/27 12:08:47;;;;;;;8.43;3.50;;;20.80;1.00;;;;;;5122819;28;20551;-78
2023/05/27 12:11:13;;;;;;;9.13;3.33;;;20.80;1.00;;;;;;5120211;28;20174;-78
2023/05/27 12:13:39;;;;;;;10.27;3.57;;;20.80;99.90;;;;;;5104830;28;20189;-77
2023/05/27 12:16:05;;;;;;;12.33;3.60;;;20.80;99.90;;;;;;5097337;28;20734;-79
2023/05/27 12:18:30;;;;;;;12.70;3.60;;;20.90;32.90;;;;;;5100391;28;20547;-78
2023/05/27 12:20:56;;;;;;;11.73;3.43;;;20.90;1.00;;;;;;5095961;28;20174;-76
2023/05/27 12:23:22;;;;;;;12.03;4.13;;;21.00;1.00;;;;;;5110721;28;20244;-78
2023/05/27 12:25:47;;;;;;;9.30;3.37;;;21.20;99.90;;;;;;5100579;28;20203;-78
2023/05/27 12:28:13;;;;;;;8.40;2.77;;;21.10;1.00;;;;;;5114521;28;20170;-78
2023/05/27 12:30:38;;;;;;;7.63;3.30;;;21.10;1.00;;;;;;5114773;28;20201;-78
2023/05/27 12:33:05;;;;;;;11.17;3.10;;;21.20;99.90;;;;;;5112932;28;20181;-78
2023/05/27 12:35:32;;;;;;;9.53;3.37;;;21.20;99.90;;;;;;5114502;28;20266;-79
2023/05/27 12:37:58;;;;;;;8.30;3.10;;;21.20;1.00;;;;;;5105807;28;20642;-80
2023/05/27 12:40:24;;;;;;;8.20;3.00;;;21.30;99.90;;;;;;5109952;28;20182;-80
2023/05/27 12:42:50;;;;;;;7.67;2.67;;;21.30;99.90;;;;;;5118045;28;20194;-80
2023/05/27 12:45:15;;;;;;;7.40;3.23;;;21.30;1.00;;;;;;5117799;28;20196;-80
2023/05/27 12:47:41;;;;;;;9.00;3.10;;;21.40;93.00;;;;;;5117273;28;20170;-80